EAG36WA EGAC-EGBB
Flight info
| Callsign | EAG36WA |
|---|---|
| Flight time | 0h 59m |
| Altitude | 19000 |
| Route | DUFFY L15 PEPOD Q38 MAKUX |
| Aircraft | AT76/M-SDFGIRY/S |
Departure
| Time | 2026-05-04 13:39 |
|---|---|
| Airport | George Best Belfast City Airport (EGAC) |
Arrival
| Time | 2026-05-04 14:39 |
|---|---|
| Airport | Birmingham Airport (EGBB) |
| Time | Latitude | Longitude | Altitude | Speed | Heading |
|---|---|---|---|---|---|
| 2026-05-04 13:26 | 54.61599 | -5.87021 | 19 ft | 0 kts | 124° |
| 2026-05-04 13:32 | 54.61602 | -5.87028 | 19 ft | 3 kts | 125° |
| 2026-05-04 13:32 | 54.61619 | -5.87063 | 18 ft | 4 kts | 140° |
| 2026-05-04 13:33 | 54.61640 | -5.87083 | 19 ft | 4 kts | 184° |
| 2026-05-04 13:33 | 54.61654 | -5.87077 | 21 ft | 1 kts | 214° |
| 2026-05-04 13:33 | 54.61656 | -5.87074 | 21 ft | 0 kts | 214° |
| 2026-05-04 13:34 | 54.61655 | -5.87075 | 21 ft | 1 kts | 214° |
| 2026-05-04 13:35 | 54.61624 | -5.87112 | 20 ft | 9 kts | 214° |
| 2026-05-04 13:35 | 54.61489 | -5.87275 | 18 ft | 15 kts | 215° |
| 2026-05-04 13:35 | 54.61408 | -5.87390 | 19 ft | 16 kts | 236° |
| 2026-05-04 13:36 | 54.61321 | -5.87517 | 16 ft | 18 kts | 215° |
| 2026-05-04 13:36 | 54.61219 | -5.87644 | 13 ft | 15 kts | 215° |
| 2026-05-04 13:36 | 54.61129 | -5.87751 | 14 ft | 15 kts | 216° |
| 2026-05-04 13:36 | 54.61085 | -5.87864 | 15 ft | 11 kts | 274° |
| 2026-05-04 13:37 | 54.61119 | -5.87986 | 14 ft | 11 kts | 304° |
| 2026-05-04 13:37 | 54.61171 | -5.88014 | 15 ft | 7 kts | 30° |
| 2026-05-04 13:37 | 54.61197 | -5.87985 | 15 ft | 0 kts | 35° |
| 2026-05-04 13:39 | 54.61351 | -5.87800 | 11 ft | 59 kts | 34° |
| 2026-05-04 13:39 | 54.61843 | -5.87213 | 16 ft | 112 kts | 34° |
| 2026-05-04 13:39 | 54.62535 | -5.86406 | 400 ft | 120 kts | 34° |
| 2026-05-04 13:39 | 54.63237 | -5.85630 | 1012 ft | 120 kts | 31° |
| 2026-05-04 13:40 | 54.63939 | -5.84818 | 1627 ft | 123 kts | 30° |
| 2026-05-04 13:40 | 54.64660 | -5.83902 | 1988 ft | 139 kts | 33° |
| 2026-05-04 13:40 | 54.65421 | -5.82685 | 2132 ft | 162 kts | 56° |
| 2026-05-04 13:40 | 54.65550 | -5.80650 | 2319 ft | 182 kts | 107° |
| 2026-05-04 13:41 | 54.65029 | -5.78646 | 2640 ft | 185 kts | 126° |
| 2026-05-04 13:41 | 54.63989 | -5.77451 | 2987 ft | 183 kts | 172° |
| 2026-05-04 13:41 | 54.62750 | -5.77240 | 3365 ft | 179 kts | 187° |
| 2026-05-04 13:42 | 54.60544 | -5.78995 | 4156 ft | 177 kts | 208° |
| 2026-05-04 13:42 | 54.59421 | -5.79869 | 4673 ft | 176 kts | 207° |
| 2026-05-04 13:42 | 54.58294 | -5.80706 | 5147 ft | 177 kts | 204° |
| 2026-05-04 13:42 | 54.57064 | -5.80706 | 5542 ft | 184 kts | 161° |
| 2026-05-04 13:43 | 54.55881 | -5.79792 | 5930 ft | 188 kts | 155° |
| 2026-05-04 13:43 | 54.54702 | -5.78764 | 6275 ft | 191 kts | 155° |
| 2026-05-04 13:43 | 54.53514 | -5.77720 | 6624 ft | 192 kts | 155° |
| 2026-05-04 13:43 | 54.52328 | -5.76709 | 6939 ft | 193 kts | 155° |
| 2026-05-04 13:44 | 54.51114 | -5.75701 | 7245 ft | 195 kts | 157° |
| 2026-05-04 13:44 | 54.49876 | -5.74715 | 7565 ft | 196 kts | 158° |
| 2026-05-04 13:44 | 54.48629 | -5.73727 | 7883 ft | 198 kts | 158° |
| 2026-05-04 13:44 | 54.47374 | -5.72736 | 8202 ft | 199 kts | 158° |
| 2026-05-04 13:45 | 54.46109 | -5.71747 | 8526 ft | 200 kts | 158° |
| 2026-05-04 13:45 | 54.44856 | -5.70766 | 8839 ft | 201 kts | 158° |
| 2026-05-04 13:45 | 54.43580 | -5.69764 | 9158 ft | 202 kts | 158° |
| 2026-05-04 13:45 | 54.42298 | -5.68755 | 9460 ft | 203 kts | 158° |
| 2026-05-04 13:46 | 54.41009 | -5.67739 | 9767 ft | 204 kts | 158° |
| 2026-05-04 13:46 | 54.39714 | -5.66723 | 10056 ft | 205 kts | 158° |
| 2026-05-04 13:46 | 54.38406 | -5.65696 | 10318 ft | 207 kts | 158° |
| 2026-05-04 13:46 | 54.37093 | -5.64669 | 10579 ft | 208 kts | 157° |
| 2026-05-04 13:47 | 54.35783 | -5.63655 | 10890 ft | 205 kts | 157° |
| 2026-05-04 13:47 | 54.34476 | -5.62657 | 11165 ft | 206 kts | 157° |
| 2026-05-04 13:47 | 54.33163 | -5.61656 | 11420 ft | 207 kts | 157° |
| 2026-05-04 13:47 | 54.31862 | -5.60665 | 11670 ft | 208 kts | 156° |
| 2026-05-04 13:48 | 54.30540 | -5.59642 | 11924 ft | 209 kts | 156° |
| 2026-05-04 13:48 | 54.29213 | -5.58611 | 12183 ft | 210 kts | 156° |
| 2026-05-04 13:48 | 54.27879 | -5.57579 | 12443 ft | 211 kts | 156° |
| 2026-05-04 13:48 | 54.26639 | -5.56255 | 12650 ft | 211 kts | 131° |
| 2026-05-04 13:49 | 54.25768 | -5.54224 | 12839 ft | 213 kts | 123° |
| 2026-05-04 13:49 | 54.24956 | -5.52096 | 13055 ft | 214 kts | 122° |
| 2026-05-04 13:49 | 54.24142 | -5.49956 | 13304 ft | 215 kts | 123° |
| 2026-05-04 13:49 | 54.23306 | -5.47829 | 13544 ft | 216 kts | 124° |
| 2026-05-04 13:50 | 54.22448 | -5.45753 | 13765 ft | 217 kts | 125° |
| 2026-05-04 13:50 | 54.21564 | -5.43656 | 13993 ft | 218 kts | 125° |
| 2026-05-04 13:50 | 54.20673 | -5.41551 | 14205 ft | 218 kts | 125° |
| 2026-05-04 13:50 | 54.19781 | -5.39443 | 14413 ft | 219 kts | 125° |
| 2026-05-04 13:51 | 54.18889 | -5.37323 | 14619 ft | 219 kts | 125° |
| 2026-05-04 13:51 | 54.17990 | -5.35211 | 14813 ft | 220 kts | 125° |
| 2026-05-04 13:51 | 54.17088 | -5.33093 | 15004 ft | 221 kts | 125° |
| 2026-05-04 13:51 | 54.16198 | -5.30997 | 15196 ft | 221 kts | 125° |
| 2026-05-04 13:52 | 54.14375 | -5.26706 | 15487 ft | 226 kts | 125° |
| 2026-05-04 13:52 | 54.13446 | -5.24527 | 15638 ft | 228 kts | 125° |
| 2026-05-04 13:52 | 54.12523 | -5.22356 | 15884 ft | 224 kts | 125° |
| 2026-05-04 13:53 | 54.11608 | -5.20210 | 16134 ft | 222 kts | 126° |
| 2026-05-04 13:53 | 54.10702 | -5.18095 | 16284 ft | 225 kts | 126° |
| 2026-05-04 13:53 | 54.09788 | -5.15952 | 16501 ft | 223 kts | 125° |
| 2026-05-04 13:54 | 54.07952 | -5.11657 | 16844 ft | 225 kts | 126° |
| 2026-05-04 13:54 | 54.07029 | -5.09499 | 17028 ft | 225 kts | 125° |
| 2026-05-04 13:54 | 54.05187 | -5.05202 | 17325 ft | 227 kts | 125° |
| 2026-05-04 13:55 | 54.04255 | -5.03027 | 17508 ft | 226 kts | 125° |
| 2026-05-04 13:55 | 54.02390 | -4.98694 | 17815 ft | 227 kts | 125° |
| 2026-05-04 13:55 | 54.01458 | -4.96528 | 17981 ft | 226 kts | 125° |
| 2026-05-04 13:56 | 54.00529 | -4.94367 | 18133 ft | 228 kts | 126° |
| 2026-05-04 13:56 | 53.99592 | -4.92191 | 18297 ft | 228 kts | 125° |
| 2026-05-04 13:56 | 53.97724 | -4.87864 | 18581 ft | 229 kts | 124° |
| 2026-05-04 13:57 | 53.96778 | -4.85686 | 18716 ft | 230 kts | 125° |
| 2026-05-04 13:57 | 53.95821 | -4.83507 | 18847 ft | 230 kts | 125° |
| 2026-05-04 13:58 | 53.92907 | -4.76900 | 19043 ft | 238 kts | 126° |
| 2026-05-04 13:58 | 53.90902 | -4.72318 | 19066 ft | 245 kts | 124° |
| 2026-05-04 13:58 | 53.89882 | -4.69966 | 19074 ft | 248 kts | 125° |
| 2026-05-04 13:59 | 53.88850 | -4.67591 | 19073 ft | 251 kts | 125° |
| 2026-05-04 13:59 | 53.87819 | -4.65233 | 19073 ft | 253 kts | 124° |
| 2026-05-04 13:59 | 53.85709 | -4.60399 | 19074 ft | 256 kts | 124° |
| 2026-05-04 14:00 | 53.84646 | -4.57970 | 19068 ft | 257 kts | 125° |
| 2026-05-04 14:00 | 53.82505 | -4.53089 | 19068 ft | 259 kts | 126° |
| 2026-05-04 14:00 | 53.81422 | -4.50646 | 19074 ft | 259 kts | 125° |
| 2026-05-04 14:01 | 53.80361 | -4.48216 | 19065 ft | 259 kts | 124° |
| 2026-05-04 14:01 | 53.79289 | -4.45746 | 19068 ft | 260 kts | 124° |
| 2026-05-04 14:01 | 53.77145 | -4.40805 | 19065 ft | 261 kts | 126° |
| 2026-05-04 14:02 | 53.76069 | -4.38327 | 19073 ft | 261 kts | 124° |
| 2026-05-04 14:02 | 53.75003 | -4.35891 | 19067 ft | 261 kts | 125° |
| 2026-05-04 14:02 | 53.73918 | -4.33430 | 19076 ft | 261 kts | 126° |
| 2026-05-04 14:02 | 53.72831 | -4.30972 | 19068 ft | 261 kts | 125° |
| 2026-05-04 14:03 | 53.71738 | -4.28517 | 19071 ft | 261 kts | 126° |
| 2026-05-04 14:03 | 53.71012 | -4.26893 | 19076 ft | 261 kts | 126° |
| 2026-05-04 14:03 | 53.69912 | -4.24447 | 19072 ft | 261 kts | 125° |
| 2026-05-04 14:03 | 53.68814 | -4.22000 | 19076 ft | 262 kts | 125° |
| 2026-05-04 14:04 | 53.66639 | -4.17082 | 19079 ft | 261 kts | 125° |
| 2026-05-04 14:04 | 53.65551 | -4.14636 | 19072 ft | 261 kts | 126° |
| 2026-05-04 14:04 | 53.64461 | -4.12180 | 19075 ft | 260 kts | 126° |
| 2026-05-04 14:05 | 53.62278 | -4.07305 | 19064 ft | 259 kts | 126° |
| 2026-05-04 14:05 | 53.61205 | -4.04908 | 19073 ft | 259 kts | 126° |
| 2026-05-04 14:05 | 53.60119 | -4.02482 | 19067 ft | 259 kts | 125° |
| 2026-05-04 14:06 | 53.59040 | -4.00058 | 19069 ft | 258 kts | 125° |
| 2026-05-04 14:06 | 53.57954 | -3.97632 | 19069 ft | 258 kts | 126° |
| 2026-05-04 14:06 | 53.56873 | -3.95214 | 19073 ft | 258 kts | 126° |
| 2026-05-04 14:06 | 53.55803 | -3.92837 | 19069 ft | 258 kts | 126° |
| 2026-05-04 14:07 | 53.54719 | -3.90422 | 19067 ft | 258 kts | 126° |
| 2026-05-04 14:07 | 53.53636 | -3.88011 | 19066 ft | 258 kts | 126° |
| 2026-05-04 14:07 | 53.52544 | -3.85606 | 19070 ft | 258 kts | 126° |
| 2026-05-04 14:07 | 53.51462 | -3.83200 | 19068 ft | 258 kts | 126° |
| 2026-05-04 14:08 | 53.50380 | -3.80803 | 19073 ft | 258 kts | 126° |
| 2026-05-04 14:08 | 53.49297 | -3.78402 | 19073 ft | 257 kts | 126° |
| 2026-05-04 14:08 | 53.48217 | -3.76000 | 19066 ft | 258 kts | 126° |
| 2026-05-04 14:08 | 53.47135 | -3.73600 | 19068 ft | 258 kts | 126° |
| 2026-05-04 14:09 | 53.44980 | -3.68848 | 19069 ft | 258 kts | 126° |
| 2026-05-04 14:09 | 53.43894 | -3.66455 | 19057 ft | 258 kts | 126° |
| 2026-05-04 14:10 | 53.41713 | -3.61664 | 19066 ft | 258 kts | 126° |
| 2026-05-04 14:10 | 53.40613 | -3.59296 | 19061 ft | 258 kts | 128° |
| 2026-05-04 14:10 | 53.39432 | -3.57021 | 19061 ft | 258 kts | 131° |
| 2026-05-04 14:10 | 53.38224 | -3.54788 | 19062 ft | 258 kts | 131° |
| 2026-05-04 14:11 | 53.37018 | -3.52545 | 19065 ft | 259 kts | 131° |
| 2026-05-04 14:11 | 53.34616 | -3.48056 | 19065 ft | 259 kts | 130° |
| 2026-05-04 14:11 | 53.33425 | -3.45800 | 19063 ft | 259 kts | 131° |
| 2026-05-04 14:12 | 53.32234 | -3.43542 | 19066 ft | 259 kts | 130° |
| 2026-05-04 14:12 | 53.31063 | -3.41313 | 19065 ft | 259 kts | 130° |
| 2026-05-04 14:12 | 53.28690 | -3.36798 | 19065 ft | 258 kts | 130° |
| 2026-05-04 14:13 | 53.27495 | -3.34539 | 19070 ft | 258 kts | 130° |
| 2026-05-04 14:13 | 53.26305 | -3.32286 | 19066 ft | 258 kts | 130° |
| 2026-05-04 14:13 | 53.25118 | -3.30033 | 19065 ft | 258 kts | 130° |
| 2026-05-04 14:13 | 53.23933 | -3.27770 | 19068 ft | 258 kts | 130° |
| 2026-05-04 14:14 | 53.22766 | -3.25538 | 19069 ft | 258 kts | 130° |
| 2026-05-04 14:14 | 53.20407 | -3.21020 | 19069 ft | 258 kts | 130° |
| 2026-05-04 14:14 | 53.19221 | -3.18762 | 19080 ft | 258 kts | 128° |
| 2026-05-04 14:15 | 53.17278 | -3.13763 | 19080 ft | 256 kts | 119° |
| 2026-05-04 14:15 | 53.15466 | -3.08677 | 19077 ft | 256 kts | 121° |
| 2026-05-04 14:16 | 53.13552 | -3.03631 | 19078 ft | 257 kts | 122° |
| 2026-05-04 14:16 | 53.12593 | -3.01106 | 19077 ft | 258 kts | 122° |
| 2026-05-04 14:17 | 53.10685 | -2.96095 | 19069 ft | 258 kts | 122° |
| 2026-05-04 14:17 | 53.09724 | -2.93569 | 19079 ft | 258 kts | 122° |
| 2026-05-04 14:17 | 53.07786 | -2.88545 | 19075 ft | 258 kts | 124° |
| 2026-05-04 14:18 | 53.06752 | -2.86102 | 19072 ft | 258 kts | 126° |
| 2026-05-04 14:18 | 53.04608 | -2.81316 | 19072 ft | 258 kts | 126° |
| 2026-05-04 14:19 | 53.02435 | -2.76433 | 18582 ft | 278 kts | 127° |
| 2026-05-04 14:19 | 53.01260 | -2.73795 | 18130 ft | 291 kts | 127° |
| 2026-05-04 14:19 | 53.00032 | -2.71048 | 17645 ft | 301 kts | 127° |
| 2026-05-04 14:19 | 52.98769 | -2.68225 | 17167 ft | 308 kts | 127° |
| 2026-05-04 14:20 | 52.97478 | -2.65334 | 16701 ft | 314 kts | 127° |
| 2026-05-04 14:20 | 52.96173 | -2.62427 | 16432 ft | 307 kts | 128° |
| 2026-05-04 14:20 | 52.94916 | -2.59673 | 15946 ft | 300 kts | 128° |
| 2026-05-04 14:21 | 52.92436 | -2.54242 | 14948 ft | 290 kts | 128° |
| 2026-05-04 14:21 | 52.91234 | -2.51575 | 14455 ft | 287 kts | 127° |
| 2026-05-04 14:21 | 52.90046 | -2.48939 | 13975 ft | 284 kts | 128° |
| 2026-05-04 14:21 | 52.88864 | -2.46321 | 13447 ft | 282 kts | 128° |
| 2026-05-04 14:22 | 52.87706 | -2.43752 | 12922 ft | 280 kts | 128° |
| 2026-05-04 14:22 | 52.86541 | -2.41172 | 12399 ft | 278 kts | 128° |
| 2026-05-04 14:22 | 52.85384 | -2.38617 | 11885 ft | 276 kts | 127° |
| 2026-05-04 14:22 | 52.84173 | -2.36193 | 11379 ft | 270 kts | 141° |
| 2026-05-04 14:23 | 52.80943 | -2.33147 | 10391 ft | 267 kts | 154° |
| 2026-05-04 14:23 | 52.79305 | -2.31788 | 9913 ft | 267 kts | 154° |
| 2026-05-04 14:23 | 52.77642 | -2.30441 | 9449 ft | 264 kts | 155° |
| 2026-05-04 14:24 | 52.76018 | -2.29134 | 9248 ft | 253 kts | 155° |
| 2026-05-04 14:24 | 52.74473 | -2.27896 | 9144 ft | 240 kts | 155° |
| 2026-05-04 14:24 | 52.73018 | -2.26710 | 9089 ft | 227 kts | 155° |
| 2026-05-04 14:24 | 52.71623 | -2.25553 | 9072 ft | 226 kts | 155° |
| 2026-05-04 14:25 | 52.70194 | -2.24351 | 9066 ft | 235 kts | 155° |
| 2026-05-04 14:25 | 52.67373 | -2.22000 | 9061 ft | 250 kts | 155° |
| 2026-05-04 14:25 | 52.65803 | -2.20703 | 9063 ft | 255 kts | 155° |
| 2026-05-04 14:26 | 52.64201 | -2.19386 | 9067 ft | 259 kts | 155° |
| 2026-05-04 14:26 | 52.62576 | -2.18056 | 9067 ft | 262 kts | 155° |
| 2026-05-04 14:26 | 52.60969 | -2.16745 | 9037 ft | 253 kts | 155° |
| 2026-05-04 14:26 | 52.59365 | -2.15444 | 8551 ft | 262 kts | 155° |
| 2026-05-04 14:27 | 52.57728 | -2.14120 | 8042 ft | 269 kts | 155° |
| 2026-05-04 14:27 | 52.56034 | -2.12750 | 7537 ft | 273 kts | 155° |
| 2026-05-04 14:27 | 52.54322 | -2.11366 | 7131 ft | 273 kts | 155° |
| 2026-05-04 14:27 | 52.52625 | -2.09987 | 6811 ft | 268 kts | 155° |
| 2026-05-04 14:28 | 52.50958 | -2.08632 | 6312 ft | 265 kts | 155° |
| 2026-05-04 14:28 | 52.49311 | -2.07292 | 5789 ft | 262 kts | 155° |
| 2026-05-04 14:28 | 52.47690 | -2.05972 | 5392 ft | 256 kts | 155° |
| 2026-05-04 14:28 | 52.46136 | -2.04700 | 5207 ft | 253 kts | 155° |
| 2026-05-04 14:29 | 52.42915 | -2.02034 | 5091 ft | 263 kts | 155° |
| 2026-05-04 14:29 | 52.39828 | -1.99519 | 5063 ft | 264 kts | 155° |
| 2026-05-04 14:30 | 52.38175 | -1.98188 | 5064 ft | 264 kts | 155° |
| 2026-05-04 14:30 | 52.36537 | -1.96887 | 5069 ft | 264 kts | 155° |
| 2026-05-04 14:30 | 52.33256 | -1.94322 | 5060 ft | 249 kts | 155° |
| 2026-05-04 14:31 | 52.31715 | -1.93133 | 4808 ft | 244 kts | 155° |
| 2026-05-04 14:31 | 52.29534 | -1.89277 | 3776 ft | 244 kts | 100° |
| 2026-05-04 14:32 | 52.29309 | -1.83796 | 2749 ft | 242 kts | 91° |
| 2026-05-04 14:32 | 52.29262 | -1.81065 | 2360 ft | 237 kts | 90° |
| 2026-05-04 14:32 | 52.29234 | -1.78440 | 2190 ft | 225 kts | 90° |
| 2026-05-04 14:32 | 52.29205 | -1.75961 | 2115 ft | 211 kts | 90° |
| 2026-05-04 14:33 | 52.29173 | -1.73629 | 2093 ft | 200 kts | 90° |
| 2026-05-04 14:33 | 52.29141 | -1.71416 | 2062 ft | 190 kts | 90° |
| 2026-05-04 14:33 | 52.29113 | -1.69333 | 2059 ft | 182 kts | 90° |
| 2026-05-04 14:33 | 52.29083 | -1.67306 | 2043 ft | 177 kts | 90° |
| 2026-05-04 14:34 | 52.29055 | -1.65269 | 2053 ft | 180 kts | 90° |
| 2026-05-04 14:34 | 52.29223 | -1.63261 | 2062 ft | 180 kts | 60° |
| 2026-05-04 14:34 | 52.30180 | -1.62037 | 2062 ft | 183 kts | 14° |
| 2026-05-04 14:34 | 52.31447 | -1.61851 | 2059 ft | 184 kts | 4° |
| 2026-05-04 14:35 | 52.32746 | -1.61778 | 2052 ft | 188 kts | 2° |
| 2026-05-04 14:35 | 52.34022 | -1.62095 | 2047 ft | 188 kts | 332° |
| 2026-05-04 14:35 | 52.35078 | -1.63343 | 2050 ft | 188 kts | 325° |
| 2026-05-04 14:35 | 52.36108 | -1.64531 | 2038 ft | 169 kts | 327° |
| 2026-05-04 14:36 | 52.37029 | -1.65534 | 2044 ft | 151 kts | 327° |
| 2026-05-04 14:36 | 52.37854 | -1.66452 | 1978 ft | 139 kts | 328° |
| 2026-05-04 14:36 | 52.38619 | -1.67304 | 1770 ft | 131 kts | 327° |
| 2026-05-04 14:36 | 52.39363 | -1.68119 | 1613 ft | 127 kts | 329° |
| 2026-05-04 14:37 | 52.40091 | -1.68919 | 1408 ft | 125 kts | 328° |
| 2026-05-04 14:37 | 52.40806 | -1.69717 | 1219 ft | 124 kts | 327° |
| 2026-05-04 14:37 | 52.41548 | -1.70543 | 1052 ft | 133 kts | 328° |
| 2026-05-04 14:37 | 52.42321 | -1.71416 | 896 ft | 134 kts | 328° |
| 2026-05-04 14:38 | 52.43070 | -1.72245 | 748 ft | 127 kts | 328° |
| 2026-05-04 14:38 | 52.43800 | -1.73040 | 552 ft | 125 kts | 327° |
| 2026-05-04 14:38 | 52.44503 | -1.73825 | 378 ft | 119 kts | 329° |
| 2026-05-04 14:38 | 52.45121 | -1.74507 | 325 ft | 80 kts | 327° |
| 2026-05-04 14:39 | 52.45531 | -1.74963 | 318 ft | 62 kts | 325° |
| 2026-05-04 14:39 | 52.45828 | -1.75292 | 317 ft | 45 kts | 326° |
| 2026-05-04 14:39 | 52.46067 | -1.75559 | 306 ft | 37 kts | 326° |
| 2026-05-04 14:40 | 52.46193 | -1.75371 | 299 ft | 14 kts | 149° |
| 2026-05-04 14:40 | 52.46115 | -1.75284 | 302 ft | 13 kts | 146° |
| 2026-05-04 14:40 | 52.46039 | -1.75200 | 301 ft | 13 kts | 146° |
| 2026-05-04 14:40 | 52.45967 | -1.75120 | 303 ft | 12 kts | 144° |
| 2026-05-04 14:41 | 52.45898 | -1.75040 | 305 ft | 12 kts | 146° |
| 2026-05-04 14:41 | 52.45831 | -1.74968 | 304 ft | 11 kts | 146° |
| 2026-05-04 14:41 | 52.45709 | -1.74832 | 309 ft | 10 kts | 148° |
| 2026-05-04 14:42 | 52.45584 | -1.74694 | 317 ft | 12 kts | 146° |
| 2026-05-04 14:42 | 52.45504 | -1.74606 | 320 ft | 16 kts | 147° |
| 2026-05-04 14:42 | 52.45440 | -1.74458 | 320 ft | 17 kts | 116° |
| 2026-05-04 14:43 | 52.45386 | -1.74279 | 320 ft | 18 kts | 117° |
| 2026-05-04 14:43 | 52.45326 | -1.74085 | 320 ft | 20 kts | 115° |
| 2026-05-04 14:43 | 52.45247 | -1.73939 | 320 ft | 16 kts | 144° |
| 2026-05-04 14:43 | 52.45163 | -1.73844 | 320 ft | 14 kts | 148° |
| 2026-05-04 14:44 | 52.45100 | -1.73750 | 320 ft | 11 kts | 101° |
| 2026-05-04 14:44 | 52.45127 | -1.73658 | 320 ft | 8 kts | 56° |
| 2026-05-04 14:44 | 52.45151 | -1.73598 | 319 ft | 5 kts | 57° |
| 2026-05-04 14:44 | 52.45164 | -1.73559 | 320 ft | 2 kts | 86° |
| 2026-05-04 14:45 | 52.45144 | -1.73528 | 319 ft | 7 kts | 143° |
| 2026-05-04 14:45 | 52.45120 | -1.73496 | 320 ft | 1 kts | 141° |
| 2026-05-04 14:45 | 52.45115 | -1.73489 | 320 ft | 0 kts | 141° |
| 2026-05-04 14:45 | 52.45114 | -1.73488 | 320 ft | 0 kts | 141° |